Adair Village, Oregon
Current Conditions -  °F | °C
As of 4:55 PM on Wednesday 22 Oct 2014 (Local Time) from KCVO Reporting Station
Overcast Overcast  
Wind Chill: 59°   Ceiling: 9000
Heat Index: 59°   Visibility: 10mi
Dew Point: 55°   Wind: 6mph
Humidity: 88%   Direction: 190°S
Pressure: 29.76"   Gusts: NA
Location:  44.6364°N, 123.28°W
Report Text: KCVO 222355Z AUTO 19005KT 10SM FEW044 SCT050 OVC090 15/13 A2976 RMK AO1 P0013 60043 10160 20140 401600130 52007
Loading
Personal Weather Stations






























Interactive Weather Map
Tropical Storm Tracking
New forecast layout! Learn more

10-Day Weather Forecast

Advertisements
Track Severe Weather on mobile